createdAt,value
2019-05-14T00:02:18.294Z,103468.89
2019-05-14T00:04:45.945Z,103472.08
2019-05-14T00:07:13.591Z,103474.38
2019-05-14T00:09:41.619Z,103472.39
2019-05-14T00:12:11.299Z,103482.68
2019-05-14T00:14:40.336Z,103486.32
2019-05-14T00:17:08.314Z,103416.91
2019-05-14T00:19:36.023Z,103482.21
2019-05-14T00:22:03.647Z,103482.81
2019-05-14T00:24:32.377Z,103476.69
2019-05-14T00:27:02.075Z,103474.60
2019-05-14T00:29:31.967Z,103468.47
2019-05-14T00:31:59.268Z,103464.55
2019-05-14T00:34:26.910Z,103462.46
2019-05-14T00:36:54.649Z,103456.36
2019-05-14T00:39:22.259Z,103460.46
2019-05-14T00:41:51.251Z,103460.52
2019-05-14T00:44:21.386Z,103458.38
2019-05-14T00:46:48.651Z,103459.30
2019-05-14T00:49:16.275Z,103462.12
2019-05-14T00:51:43.907Z,103470.64
2019-05-14T00:54:11.550Z,103467.17
2019-05-14T00:56:41.712Z,103469.47
2019-05-14T00:59:11.257Z,103464.73
2019-05-14T01:01:38.695Z,103460.85
2019-05-14T01:04:06.367Z,103466.27
2019-05-14T01:06:33.995Z,103463.76
2019-05-14T01:09:01.640Z,103459.47
2019-05-14T01:11:31.337Z,103458.20
2019-05-14T01:13:58.674Z,103462.75
2019-05-14T01:16:26.307Z,103456.70
2019-05-14T01:18:53.972Z,103463.86
2019-05-14T01:21:22.035Z,103463.97
2019-05-14T01:23:51.393Z,103456.56
2019-05-14T01:26:21.603Z,103452.68
2019-05-14T01:28:48.698Z,103455.53
2019-05-14T01:31:16.382Z,103450.78
2019-05-14T01:33:44.023Z,103450.88
2019-05-14T01:36:12.358Z,103454.56
2019-05-14T01:38:41.905Z,103457.72
2019-05-14T01:41:11.696Z,103457.40
2019-05-14T01:43:39.043Z,103451.32
2019-05-14T01:46:06.668Z,103443.46
2019-05-14T01:48:34.302Z,103451.52
2019-05-14T01:51:01.950Z,103458.20
2019-05-14T01:53:31.163Z,103462.33
2019-05-14T01:56:01.332Z,103464.66
2019-05-14T01:58:28.520Z,103463.84
2019-05-14T02:00:56.139Z,103464.81
2019-05-14T02:03:23.775Z,103467.98
2019-05-14T02:05:52.054Z,103468.07
2019-05-14T02:08:21.425Z,103473.92
2019-05-14T02:10:49.432Z,103403.06
2019-05-14T02:13:17.075Z,103471.87
2019-05-14T02:15:44.694Z,103477.22
2019-05-14T02:18:12.332Z,103472.06
2019-05-14T02:20:41.466Z,103470.78
2019-05-14T02:23:09.209Z,103470.91
2019-05-14T02:25:36.835Z,103478.50
2019-05-14T02:28:04.463Z,103474.67
2019-05-14T02:30:46.036Z,103478.33
2019-05-14T02:33:01.476Z,103476.76
2019-05-14T02:35:29.900Z,103470.31
2019-05-14T02:37:59.607Z,103463.41
2019-05-14T02:40:29.431Z,103465.37
2019-05-14T02:42:59.289Z,103470.89
2019-05-14T02:45:25.944Z,103471.15
2019-05-14T02:47:53.609Z,103478.83
2019-05-14T02:50:21.298Z,103480.82
2019-05-14T02:52:49.814Z,103478.75
2019-05-14T02:55:19.347Z,103455.05
2019-05-14T02:57:49.826Z,103472.09
2019-05-14T03:00:19.303Z,103473.58
2019-05-14T03:02:49.162Z,103465.84
2019-05-14T03:05:19.107Z,103462.48
2019-05-14T03:07:45.697Z,103464.95
2019-05-14T03:10:13.406Z,103468.64
2019-05-14T03:12:41.046Z,103461.31
2019-05-14T03:15:09.970Z,103465.02
2019-05-14T03:17:40.432Z,103465.13
2019-05-14T03:20:09.143Z,103458.63
2019-05-14T03:22:46.560Z,103448.23
2019-05-14T03:25:09.872Z,103441.32
2019-05-14T03:27:36.405Z,103441.44
2019-05-14T03:30:04.732Z,103433.65
2019-05-14T03:32:33.360Z,103435.95
2019-05-14T03:35:04.080Z,103441.81
2019-05-14T03:37:31.193Z,103443.28
2019-05-14T03:39:59.462Z,103442.90
2019-05-14T03:42:29.199Z,103439.46
2019-05-14T03:44:59.383Z,103445.20
2019-05-14T03:47:26.212Z,103441.73
2019-05-14T03:49:53.917Z,103446.14
2019-05-14T03:52:21.552Z,103451.44
2019-05-14T03:54:49.935Z,103447.02
2019-05-14T03:57:20.093Z,103455.33
2019-05-14T03:59:49.574Z,103459.27
2019-05-14T04:02:19.610Z,103453.06
2019-05-14T04:04:45.908Z,103454.77
2019-05-14T04:07:14.088Z,103463.42
2019-05-14T04:09:43.677Z,103463.32
2019-05-14T04:12:12.712Z,103461.88
2019-05-14T04:14:41.873Z,103131.55
2019-05-14T04:17:15.128Z,103466.42
2019-05-14T04:19:41.168Z,103457.05
2019-05-14T04:22:10.327Z,103459.47
2019-05-14T04:24:41.335Z,103462.83
2019-05-14T04:27:13.081Z,103468.80
2019-05-14T04:29:40.997Z,103471.70
2019-05-14T04:32:10.381Z,103474.19
2019-05-14T04:34:40.879Z,103478.33
2019-05-14T04:37:10.116Z,103474.61
2019-05-14T04:39:39.589Z,103473.87
2019-05-14T04:42:09.687Z,103474.45
2019-05-14T04:44:40.033Z,103476.27
2019-05-14T04:47:22.933Z,103474.25
2019-05-14T04:49:35.219Z,103470.80
2019-05-14T04:52:03.217Z,103475.30
2019-05-14T04:54:30.870Z,103467.98
2019-05-14T04:56:59.886Z,103468.49
2019-05-14T04:59:29.933Z,103470.37
2019-05-14T05:01:59.999Z,103468.80
2019-05-14T05:04:29.725Z,103472.46
2019-05-14T05:06:59.023Z,103473.86
2019-05-14T05:09:25.339Z,103472.15
2019-05-14T05:11:53.046Z,103471.77
2019-05-14T05:14:23.772Z,103467.80
2019-05-14T05:16:50.072Z,103407.97
2019-05-14T05:19:19.677Z,103466.11
2019-05-14T05:21:48.078Z,103466.57
2019-05-14T05:24:18.285Z,103471.51
2019-05-14T05:26:45.295Z,103471.09
2019-05-14T05:29:12.949Z,103471.08
2019-05-14T05:31:40.634Z,103474.64
2019-05-14T05:34:08.934Z,103468.98
2019-05-14T05:36:38.051Z,103480.05
2019-05-14T05:39:08.611Z,103460.45
2019-05-14T05:41:38.299Z,103471.16
2019-05-14T05:44:05.398Z,103472.59
2019-05-14T05:46:33.064Z,103468.62
2019-05-14T05:49:00.819Z,103465.47
2019-05-14T05:51:28.880Z,103463.73
2019-05-14T05:53:58.735Z,103404.38
2019-05-14T05:56:26.120Z,103471.34
2019-05-14T05:58:53.782Z,103461.08
2019-05-14T06:01:21.418Z,103468.19
2019-05-14T06:03:49.321Z,103466.92
2019-05-14T06:06:19.197Z,103468.64
2019-05-14T06:08:48.962Z,103466.80
2019-05-14T06:11:19.129Z,103465.88
2019-05-14T06:13:48.306Z,103461.50
2019-05-14T06:16:15.075Z,103466.66
2019-05-14T06:18:42.717Z,103463.41
2019-05-14T06:21:10.415Z,103465.52
2019-05-14T06:23:38.537Z,103455.97
2019-05-14T06:26:11.022Z,103459.73
2019-05-14T06:28:35.902Z,103460.91
2019-05-14T06:31:03.539Z,103459.91
2019-05-14T06:33:31.256Z,103454.98
2019-05-14T06:35:59.338Z,103462.22
2019-05-14T06:38:29.426Z,103453.73
2019-05-14T06:40:59.085Z,103461.02
2019-05-14T06:43:28.505Z,103461.63
2019-05-14T06:45:58.330Z,103458.76
2019-05-14T06:48:30.680Z,103463.98
2019-05-14T06:50:54.323Z,103452.97
2019-05-14T06:53:22.035Z,103461.90
2019-05-14T06:55:49.698Z,103465.34
2019-05-14T06:58:20.275Z,103466.25
2019-05-14T07:00:49.068Z,103466.53
2019-05-14T07:03:18.007Z,103462.02
2019-05-14T07:05:45.450Z,103467.23
2019-05-14T07:08:13.154Z,103456.59
2019-05-14T07:10:40.786Z,103464.25
2019-05-14T07:13:08.683Z,103465.08
2019-05-14T07:15:38.645Z,103461.84
2019-05-14T07:18:08.479Z,103465.52
2019-05-14T07:20:35.293Z,103461.44
2019-05-14T07:23:02.995Z,103461.09
2019-05-14T07:25:30.626Z,103455.38
2019-05-14T07:27:58.398Z,103459.34
2019-05-14T07:30:28.342Z,103460.33
2019-05-14T07:32:55.460Z,103465.41
2019-05-14T07:35:23.124Z,103467.23
2019-05-14T07:37:50.756Z,103462.75
2019-05-14T07:40:19.190Z,103460.86
2019-05-14T07:42:48.771Z,103451.50
2019-05-14T07:45:18.459Z,103453.00
2019-05-14T07:47:45.939Z,103443.83
2019-05-14T07:50:13.731Z,103443.52
2019-05-14T07:52:45.309Z,103446.59
2019-05-14T07:55:11.125Z,103453.27
2019-05-14T07:57:39.400Z,103446.09
2019-05-14T08:00:08.834Z,103441.20
2019-05-14T08:02:37.992Z,103447.49
2019-05-14T08:05:08.624Z,103442.31
2019-05-14T08:07:35.606Z,103435.38
2019-05-14T08:10:04.404Z,103435.94
2019-05-14T08:12:32.095Z,103434.41
2019-05-14T08:15:14.429Z,103437.91
2019-05-14T08:17:29.223Z,103435.36
2019-05-14T08:19:58.352Z,103431.80
2019-05-14T08:22:26.132Z,103433.70
2019-05-14T08:24:53.755Z,103423.22
2019-05-14T08:27:21.414Z,103415.17
2019-05-14T08:29:49.090Z,103410.91
2019-05-14T08:32:18.908Z,103411.39
2019-05-14T08:34:47.988Z,103413.22
2019-05-14T08:37:15.487Z,103409.94
2019-05-14T08:39:43.120Z,103410.02
2019-05-14T08:42:10.769Z,103393.48
2019-05-14T08:44:39.148Z,103391.28
2019-05-14T08:47:09.321Z,103394.79
2019-05-14T08:49:45.391Z,103397.58
2019-05-14T08:52:08.619Z,103390.19
2019-05-14T08:54:35.183Z,103397.57
2019-05-14T08:57:02.944Z,103404.73
2019-05-14T08:59:30.607Z,103393.41
2019-05-14T09:02:06.360Z,103391.45
2019-05-14T09:04:30.387Z,103391.05
2019-05-14T09:06:58.444Z,103394.53
2019-05-14T09:09:28.690Z,103395.23
2019-05-14T09:11:55.509Z,103386.20
2019-05-14T09:14:23.210Z,103388.46
2019-05-14T09:16:51.340Z,103383.53
2019-05-14T09:19:19.468Z,103382.92
2019-05-14T09:21:49.401Z,103378.87
2019-05-14T09:24:18.203Z,103367.14
2019-05-14T09:26:48.238Z,103363.89
2019-05-14T09:29:22.069Z,103365.02
2019-05-14T09:31:44.725Z,103360.11
2019-05-14T09:34:12.355Z,103356.90
2019-05-14T09:36:39.995Z,103360.91
2019-05-14T09:39:11.843Z,103365.42
2019-05-14T09:41:38.808Z,103360.47
2019-05-14T09:44:09.145Z,103369.22
2019-05-14T09:46:38.276Z,103362.67
2019-05-14T09:49:05.267Z,103363.91
2019-05-14T09:51:32.930Z,103363.15
2019-05-14T09:54:00.579Z,103360.12
2019-05-14T09:56:29.065Z,103354.61
2019-05-14T09:58:58.678Z,103354.20
2019-05-14T10:01:26.326Z,103348.13
2019-05-14T10:03:53.963Z,103345.58
2019-05-14T10:06:21.611Z,103347.80
2019-05-14T10:08:49.251Z,103265.48
2019-05-14T10:11:17.264Z,103339.00
2019-05-14T10:13:44.971Z,103342.47
2019-05-14T10:16:12.728Z,103337.28
2019-05-14T10:18:40.439Z,103328.25
2019-05-14T10:21:08.617Z,103321.43
2019-05-14T10:23:38.719Z,103322.59
2019-05-14T10:26:05.887Z,103320.70
2019-05-14T10:28:33.527Z,103315.42
2019-05-14T10:31:03.733Z,103318.06
2019-05-14T10:33:30.888Z,103322.76
2019-05-14T10:35:59.010Z,103315.29
2019-05-14T10:38:29.347Z,103310.95
2019-05-14T10:40:58.254Z,103311.52
2019-05-14T10:43:28.564Z,103310.77
2019-05-14T10:45:54.863Z,103306.23
2019-05-14T10:48:22.502Z,103303.09
2019-05-14T10:50:57.292Z,103207.27
2019-05-14T10:53:20.335Z,103309.85
2019-05-14T10:55:48.689Z,103308.02
2019-05-14T10:58:19.451Z,103302.87
2019-05-14T11:00:49.492Z,103294.62
2019-05-14T11:03:18.586Z,103292.25
2019-05-14T11:05:48.149Z,103291.23
2019-05-14T11:08:15.737Z,103298.41
2019-05-14T11:10:43.407Z,103300.45
2019-05-14T11:13:11.095Z,103300.56
2019-05-14T11:15:39.463Z,103293.06
2019-05-14T11:18:08.650Z,103295.20
2019-05-14T11:20:41.715Z,103287.84
2019-05-14T11:23:05.962Z,103284.36
2019-05-14T11:25:33.602Z,103284.54
2019-05-14T11:28:01.284Z,103273.04
2019-05-14T11:30:29.002Z,103268.67
2019-05-14T11:32:58.392Z,103261.24
2019-05-14T11:35:28.610Z,103260.03
2019-05-14T11:37:55.443Z,103255.97
2019-05-14T11:40:23.080Z,103253.13
2019-05-14T11:42:50.715Z,103260.83
2019-05-14T11:45:18.427Z,103253.28
2019-05-14T11:47:46.089Z,103239.95
2019-05-14T11:50:14.271Z,103246.30
2019-05-14T11:52:41.964Z,103238.62
2019-05-14T11:55:10.659Z,103243.48
2019-05-14T11:57:38.342Z,103238.38
2019-05-14T12:00:08.516Z,103231.78
2019-05-14T12:02:38.518Z,103224.31
2019-05-14T12:05:08.671Z,103222.80
2019-05-14T12:07:35.650Z,103209.64
2019-05-14T12:10:04.623Z,103218.50
2019-05-14T12:12:32.276Z,103208.48
2019-05-14T12:14:59.927Z,103215.26
2019-05-14T12:17:29.482Z,103212.34
2019-05-14T12:19:59.368Z,103215.00
2019-05-14T12:22:28.599Z,103206.75
2019-05-14T12:24:55.721Z,103186.09
2019-05-14T12:27:23.371Z,103191.34
2019-05-14T12:29:51.072Z,103191.17
2019-05-14T12:32:19.065Z,103181.91
2019-05-14T12:34:48.921Z,103185.73
2019-05-14T12:37:18.385Z,103188.11
2019-05-14T12:39:45.471Z,103178.41
2019-05-14T12:42:13.147Z,103180.92
2019-05-14T12:47:09.616Z,103176.83
2019-05-14T12:49:38.713Z,103180.19
2019-05-14T12:52:21.041Z,103170.64
2019-05-14T12:54:38.457Z,103174.16
2019-05-14T12:57:05.287Z,103160.73
2019-05-14T12:59:32.935Z,103156.20
2019-05-14T13:02:00.956Z,103151.19
2019-05-14T13:04:28.706Z,103152.05
2019-05-14T13:06:59.538Z,103157.87
2019-05-14T13:09:25.719Z,103151.19
2019-05-14T13:11:54.252Z,103156.00
2019-05-14T13:14:21.891Z,103157.07
2019-05-14T13:16:49.526Z,103143.70
2019-05-14T13:19:18.982Z,103155.17
2019-05-14T13:21:48.878Z,103141.84
2019-05-14T13:24:17.998Z,103148.32
2019-05-14T13:26:45.238Z,103139.98
2019-05-14T13:29:12.871Z,103144.59
2019-05-14T13:31:40.557Z,103144.20
2019-05-14T13:34:09.025Z,103138.03
2019-05-14T13:36:39.471Z,103131.50
2019-05-14T13:39:08.971Z,103123.20
2019-05-14T13:41:35.802Z,103122.97
2019-05-14T13:44:17.427Z,103126.55
2019-05-14T13:46:32.896Z,103119.67
2019-05-14T13:49:00.578Z,103117.70
2019-05-14T13:51:32.645Z,103118.95
2019-05-14T13:53:58.936Z,103122.52
2019-05-14T13:56:28.330Z,103116.86
2019-05-14T13:58:58.871Z,103111.64
2019-05-14T14:01:25.611Z,103107.22
2019-05-14T14:04:06.358Z,103098.82
2019-05-14T14:06:22.731Z,103099.87
2019-05-14T14:08:50.372Z,103100.70
2019-05-14T14:11:19.410Z,103096.20
2019-05-14T14:13:49.009Z,103098.27
2019-05-14T14:16:19.318Z,103092.03
2019-05-14T14:18:49.753Z,103095.02
2019-05-14T14:21:15.597Z,103090.87
2019-05-14T14:23:43.245Z,103089.61
2019-05-14T14:26:10.923Z,103043.41
2019-05-14T14:28:39.650Z,103086.80
2019-05-14T14:31:10.828Z,103085.52
2019-05-14T14:33:39.165Z,103079.42
2019-05-14T14:36:06.420Z,103072.65
2019-05-14T14:38:34.124Z,103083.75
2019-05-14T14:41:01.793Z,103083.39
2019-05-14T14:43:29.742Z,103083.87
2019-05-14T14:48:30.284Z,103076.69
2019-05-14T14:50:58.615Z,103068.88
2019-05-14T14:53:42.813Z,103073.62
2019-05-14T14:56:00.057Z,103075.13
2019-05-14T14:58:28.524Z,103066.30
2019-05-14T15:00:55.139Z,103064.05
2019-05-14T15:03:22.821Z,103072.03
2019-05-14T15:05:50.531Z,103073.92
2019-05-14T15:08:20.082Z,103067.14
2019-05-14T15:10:48.607Z,103059.64
2019-05-14T15:13:16.530Z,103059.61
2019-05-14T15:15:44.179Z,103058.03
2019-05-14T15:18:14.035Z,103041.58
2019-05-14T15:20:41.304Z,103050.90
2019-05-14T15:23:10.012Z,103055.07
2019-05-14T15:25:37.906Z,103049.19
2019-05-14T15:28:05.649Z,103054.01
2019-05-14T15:30:33.427Z,103051.86
2019-05-14T15:33:01.276Z,103048.19
2019-05-14T15:35:28.930Z,103054.43
2019-05-14T15:37:58.790Z,103048.66
2019-05-14T15:40:28.706Z,103041.92
2019-05-14T15:42:55.291Z,103047.44
2019-05-14T15:45:22.915Z,103046.37
2019-05-14T15:47:50.547Z,103046.72
2019-05-14T15:50:19.940Z,103049.95
2019-05-14T15:52:48.667Z,103043.43
2019-05-14T15:55:18.341Z,103051.93
2019-05-14T15:57:46.327Z,103046.36
2019-05-14T16:00:13.977Z,103052.50
2019-05-14T16:02:41.643Z,103053.70
2019-05-14T16:05:10.131Z,103044.36
2019-05-14T16:07:39.170Z,103041.11
2019-05-14T16:10:08.623Z,103040.88
2019-05-14T16:12:39.504Z,103037.27
2019-05-14T16:15:08.644Z,103028.30
2019-05-14T16:17:45.591Z,103035.55
2019-05-14T16:20:08.759Z,103030.65
2019-05-14T16:22:39.341Z,103028.64
2019-05-14T16:25:08.846Z,103029.64
2019-05-14T16:27:39.149Z,103024.42
2019-05-14T16:30:09.417Z,103025.94
2019-05-14T16:32:36.215Z,103028.79
2019-05-14T16:35:05.123Z,103027.36
2019-05-14T16:37:32.763Z,103022.89
2019-05-14T16:40:00.407Z,103019.42
2019-05-14T16:42:29.288Z,103022.48
2019-05-14T16:44:57.043Z,103018.27
2019-05-14T16:47:24.766Z,103018.20
2019-05-14T16:49:52.481Z,103027.61
2019-05-14T16:52:20.143Z,103010.36
2019-05-14T16:54:48.829Z,103017.62
2019-05-14T16:57:18.596Z,103012.65
2019-05-14T16:59:45.971Z,103021.40
2019-05-14T17:02:13.603Z,103017.36
2019-05-14T17:04:41.256Z,103008.59
2019-05-14T17:07:09.680Z,103014.21
2019-05-14T17:09:38.450Z,103008.55
2019-05-14T17:12:08.515Z,103010.50
2019-05-14T17:14:38.341Z,103011.53
2019-05-14T17:17:05.348Z,103011.31
2019-05-14T17:19:32.992Z,103008.43
2019-05-14T17:22:00.788Z,103009.75
2019-05-14T17:24:29.160Z,103009.00
2019-05-14T17:26:58.313Z,103008.25
2019-05-14T17:29:28.160Z,103004.27
2019-05-14T17:31:55.566Z,102997.95
2019-05-14T17:34:23.183Z,103017.70
2019-05-14T17:36:50.837Z,103007.30
2019-05-14T17:39:18.876Z,103001.39
2019-05-14T17:41:48.461Z,103005.03
2019-05-14T17:44:15.974Z,103007.40
2019-05-14T17:46:43.656Z,103010.91
2019-05-14T17:49:11.278Z,102995.46
2019-05-14T17:51:39.207Z,103008.27
2019-05-14T17:54:09.106Z,103010.56
2019-05-14T17:56:36.288Z,103009.98
2019-05-14T17:59:03.932Z,102994.42
2019-05-14T18:01:31.563Z,103003.31
2019-05-14T18:03:59.222Z,102994.12
2019-05-14T18:06:28.564Z,103002.00
2019-05-14T18:08:58.388Z,103001.90
2019-05-14T18:11:28.220Z,102992.95
2019-05-14T18:13:55.352Z,102994.89
2019-05-14T18:16:22.987Z,102994.30
2019-05-14T18:18:50.671Z,102996.59
2019-05-14T18:21:18.559Z,102999.95
2019-05-14T18:26:34.770Z,102981.98
2019-05-14T18:29:04.599Z,102988.70
2019-05-14T18:31:33.125Z,102996.02
2019-05-14T18:34:01.537Z,102985.77
2019-05-14T18:36:29.977Z,102995.19
2019-05-14T18:38:58.782Z,102992.47
2019-05-14T18:41:29.398Z,102988.09
2019-05-14T18:43:58.757Z,102985.61
2019-05-14T18:46:28.537Z,102991.39
2019-05-14T18:48:59.220Z,102992.70
2019-05-14T18:51:28.766Z,102990.62
2019-05-14T18:53:58.448Z,102985.73
2019-05-14T18:56:29.305Z,102984.40
2019-05-14T18:58:57.357Z,102987.06
2019-05-14T19:01:28.634Z,102980.65
2019-05-14T19:03:58.742Z,102978.14
2019-05-14T19:06:28.380Z,102984.23
2019-05-14T19:08:56.270Z,102986.09
2019-05-14T19:11:24.712Z,102985.19
2019-05-14T19:13:53.137Z,102986.44
2019-05-14T19:16:21.556Z,102984.31
2019-05-14T19:18:50.192Z,102990.79
2019-05-14T19:21:18.614Z,102993.42
2019-05-14T19:23:49.008Z,102993.75
2019-05-14T19:26:32.523Z,102998.77
2019-05-14T19:28:48.544Z,102997.61
2019-05-14T19:31:18.384Z,102991.55
2019-05-14T19:33:48.787Z,102995.05
2019-05-14T19:36:18.765Z,103003.55
2019-05-14T19:38:48.134Z,102998.20
2019-05-14T19:41:18.856Z,102999.80
2019-05-14T19:43:46.921Z,102996.81
2019-05-14T19:46:15.334Z,102998.72
2019-05-14T19:48:43.779Z,102994.12
2019-05-14T19:51:12.192Z,102996.84
2019-05-14T19:53:40.989Z,102992.23
2019-05-14T19:56:09.411Z,102996.61
2019-05-14T19:58:38.525Z,102993.77
2019-05-14T20:01:09.137Z,102995.09
2019-05-14T20:03:37.859Z,102994.39
2019-05-14T20:06:08.819Z,102990.03
2019-05-14T20:08:38.261Z,102989.63
2019-05-14T20:11:05.791Z,102998.66
2019-05-14T20:13:34.251Z,102990.76
2019-05-14T20:16:02.668Z,102992.00
2019-05-14T20:18:31.093Z,102996.97
2019-05-14T20:20:59.513Z,102990.54
2019-05-14T20:23:29.119Z,102988.47
2019-05-14T20:25:58.718Z,102986.32
2019-05-14T20:28:27.472Z,102984.05
2019-05-14T20:30:58.516Z,102980.56
2019-05-14T20:33:26.177Z,102984.17
2019-05-14T20:35:54.587Z,102982.63
2019-05-14T20:38:23.006Z,102989.60
2019-05-14T20:40:51.429Z,102990.02
2019-05-14T20:43:19.861Z,102985.94
2019-05-14T20:45:48.811Z,102988.63
2019-05-14T20:48:18.838Z,102982.66
2019-05-14T20:50:47.774Z,102977.35
2019-05-14T20:53:18.553Z,102983.37
2019-05-14T20:55:46.404Z,102981.87
2019-05-14T20:58:14.809Z,102979.14
2019-05-14T21:00:43.227Z,102979.58
2019-05-14T21:03:11.740Z,102973.58
2019-05-14T21:05:42.392Z,102976.20
2019-05-14T21:08:13.611Z,102973.23
2019-05-14T21:10:40.433Z,102973.08
2019-05-14T21:13:08.909Z,102979.95
2019-05-14T21:15:39.119Z,102980.53
2019-05-14T21:18:08.347Z,102973.27
2019-05-14T21:20:39.311Z,102977.00
2019-05-14T21:23:08.995Z,102979.41
2019-05-14T21:25:38.741Z,102969.91
2019-05-14T21:28:09.365Z,102967.18
2019-05-14T21:30:38.816Z,102972.48
2019-05-14T21:33:08.431Z,102965.52
2019-05-14T21:35:38.909Z,102966.84
2019-05-14T21:38:09.098Z,102965.19
2019-05-14T21:40:38.902Z,102968.45
2019-05-14T21:43:11.027Z,102966.89
2019-05-14T21:45:38.441Z,102970.48
2019-05-14T21:48:08.717Z,102967.71
2019-05-14T21:50:38.810Z,102966.05
2019-05-14T21:53:08.382Z,102965.30
2019-05-14T21:55:38.817Z,102966.89
2019-05-14T21:58:09.140Z,102961.78
2019-05-14T22:00:42.426Z,102958.80
2019-05-14T22:03:11.177Z,102952.92
2019-05-14T22:05:39.688Z,102956.78
2019-05-14T22:08:08.871Z,102948.64
2019-05-14T22:10:39.708Z,102952.77
2019-05-14T22:13:07.745Z,102945.98
2019-05-14T22:15:38.662Z,102949.34
2019-05-14T22:18:16.469Z,102943.83
2019-05-14T22:20:38.564Z,102947.88
2019-05-14T22:23:08.942Z,102948.08
2019-05-14T22:25:39.325Z,102945.12
2019-05-14T22:28:14.988Z,102943.19
2019-05-14T22:30:38.809Z,102940.33
2019-05-14T22:33:08.560Z,102939.92
2019-05-14T22:35:39.694Z,102938.42
2019-05-14T22:38:07.437Z,102941.20
2019-05-14T22:40:35.878Z,102946.70
2019-05-14T22:43:04.359Z,102949.25
2019-05-14T22:45:32.774Z,102938.30
2019-05-14T22:48:01.262Z,102943.54
2019-05-14T22:50:29.668Z,102944.72
2019-05-14T22:52:58.631Z,102939.34
2019-05-14T22:55:30.990Z,102937.74
2019-05-14T22:57:59.233Z,102943.61
2019-05-14T23:00:28.562Z,102942.93
2019-05-14T23:02:57.348Z,102942.41
2019-05-14T23:05:25.773Z,102940.80
2019-05-14T23:07:54.304Z,102942.78
2019-05-14T23:10:22.735Z,102941.05
2019-05-14T23:12:51.144Z,102938.55
2019-05-14T23:15:19.593Z,102935.56
2019-05-14T23:17:48.204Z,102935.63
2019-05-14T23:20:19.372Z,102935.68
2019-05-14T23:22:49.235Z,102932.28
2019-05-14T23:25:18.439Z,102931.88
2019-05-14T23:27:48.158Z,102932.56
2019-05-14T23:30:19.934Z,102939.31
2019-05-14T23:32:48.978Z,102929.34
2019-05-14T23:35:18.769Z,102930.39
2019-05-14T23:37:48.923Z,102938.09
2019-05-14T23:40:18.061Z,102930.72
2019-05-14T23:42:49.046Z,102933.55
2019-05-14T23:45:18.929Z,102933.41
2019-05-14T23:47:49.299Z,102930.08
2019-05-14T23:50:17.080Z,102925.81
2019-05-14T23:52:45.656Z,102925.96
2019-05-14T23:55:14.160Z,102929.24
2019-05-14T23:57:42.585Z,102920.97
